Time;durP1;ratioP1;P1;durP2;ratioP2;P2;SDS_P1;SDS_P2;PMS_P1;PMS_P2;Temp;Humidity;BMP_temperature;BMP_pressure;BME280_temperature;BME280_humidity;BME280_pressure;Samples;Min_cycle;Max_cycle;Signal;HPM_P1;HPM_P2
2022/05/07 00:02:24;;;;;;;30.60;13.57;;;;;;;-145.69;100.00;72582.56;5073768;28;20238;-75
2022/05/07 00:04:51;;;;;;;29.93;11.37;;;;;;;-145.69;100.00;72602.47;5073497;28;20665;-75
2022/05/07 00:07:17;;;;;;;20.93;11.57;;;;;;;-145.69;100.00;72608.44;5074285;28;20405;-76
2022/05/07 00:09:44;;;;;;;20.87;10.10;;;;;;;-145.69;100.00;72630.31;5073681;28;20198;-75
2022/05/07 00:12:13;;;;;;;21.30;10.90;;;;;;;-145.69;100.00;72626.34;5074261;28;20287;-75
2022/05/07 00:14:40;;;;;;;21.33;10.60;;;;;;;-145.69;100.00;72632.31;5073339;28;20202;-75
2022/05/07 00:19:52;;;;;;;28.60;11.23;;;;;;;-145.69;100.00;72644.25;5074019;28;20272;-75
2022/05/07 00:22:21;;;;;;;25.83;12.83;;;;;;;-145.69;100.00;72616.41;5067626;28;20270;-75
2022/05/07 00:24:48;;;;;;;24.07;12.20;;;;;;;-145.69;100.00;72628.34;5053518;28;20393;-75
2022/05/07 00:27:15;;;;;;;26.30;12.43;;;;;;;-145.69;100.00;72630.31;5053789;28;20235;-75
2022/05/07 00:29:42;;;;;;;24.40;11.90;;;;;;;-145.69;100.00;72644.25;5053678;28;20661;-75
2022/05/07 00:32:10;;;;;;;22.70;12.27;;;;;;;-145.69;100.00;72640.28;5066018;28;20530;-76
2022/05/07 00:34:36;;;;;;;40.73;13.83;;;;;;;-145.69;100.00;72630.31;5073260;28;20238;-75
2022/05/07 00:37:03;;;;;;;37.63;14.77;;;;;;;-145.69;100.00;72618.38;5073410;28;20205;-75
2022/05/07 00:39:30;;;;;;;28.97;13.77;;;;;;;-145.69;100.00;72620.38;5073718;28;20206;-75
2022/05/07 00:41:59;;;;;;;31.07;12.33;;;;;;;-145.69;100.00;72636.31;5072992;28;20673;-75
2022/05/07 00:44:25;;;;;;;27.07;10.93;;;;;;;-145.69;100.00;72654.22;5072768;28;20227;-75
2022/05/07 00:46:53;;;;;;;23.00;10.97;;;;;;;-145.69;100.00;72666.16;5073193;28;20604;-75
2022/05/07 00:49:23;;;;;;;22.50;11.70;;;;;;;-145.69;100.00;72666.16;5073235;28;20227;-75
2022/05/07 00:51:48;;;;;;;23.63;10.97;;;;;;;-145.69;100.00;72680.09;5072899;28;20331;-75
2022/05/07 00:54:17;;;;;;;27.07;12.50;;;;;;;-145.69;100.00;72680.09;5073367;28;20673;-75
2022/05/07 00:56:43;;;;;;;26.97;11.10;;;;;;;-145.69;100.00;72688.06;5072699;28;20687;-75
2022/05/07 00:59:09;;;;;;;41.28;20.45;;;;;;;-145.69;100.00;72668.16;5072088;28;20499;-75
2022/05/07 01:01:36;;;;;;;37.77;16.63;;;;;;;-145.69;100.00;72652.22;5072703;28;20657;-75
2022/05/07 01:04:04;;;;;;;44.47;15.83;;;;;;;-145.69;100.00;72640.28;5073193;28;20230;-75
2022/05/07 01:06:31;;;;;;;37.33;15.83;;;;;;;-145.69;100.00;72638.28;5072173;28;20209;-75
2022/05/07 01:09:01;;;;;;;39.03;16.27;;;;;;;-145.69;100.00;72638.28;5072946;28;20206;-75
2022/05/07 01:11:28;;;;;;;43.47;15.20;;;;;;;-145.69;100.00;72644.25;5073038;28;20208;-75
2022/05/07 01:13:54;;;;;;;40.37;15.27;;;;;;;-145.69;100.00;72638.28;5072603;28;20662;-75
2022/05/07 01:16:23;;;;;;;42.50;16.80;;;;;;;-145.69;100.00;72624.34;5072348;28;20653;-75
2022/05/07 01:18:50;;;;;;;41.47;15.43;;;;;;;-145.69;100.00;72634.31;5072764;28;20672;-75
2022/05/07 01:21:18;;;;;;;26.23;12.57;;;;;;;-145.69;100.00;72652.22;5072807;28;20244;-75
2022/05/07 01:23:47;;;;;;;30.83;12.67;;;;;;;-145.69;100.00;72656.22;5072465;28;20272;-75
2022/05/07 01:26:16;;;;;;;25.13;12.03;;;;;;;-145.69;100.00;72680.09;5073091;28;20298;-75
2022/05/07 01:28:42;;;;;;;23.50;11.47;;;;;;;-145.69;100.00;72696.00;5073339;28;20203;-75
2022/05/07 01:31:09;;;;;;;24.43;12.77;;;;;;;-145.69;100.00;72682.09;5072658;28;20199;-75
2022/05/07 01:33:37;;;;;;;32.70;13.57;;;;;;;-145.69;100.00;72684.06;5072259;28;20194;-75
2022/05/07 01:36:07;;;;;;;32.27;13.67;;;;;;;-145.69;100.00;72676.09;5072543;28;20210;-75
2022/05/07 01:38:35;;;;;;;28.27;12.73;;;;;;;-145.69;100.00;72680.09;5072313;28;20210;-75
2022/05/07 01:41:02;;;;;;;26.47;12.47;;;;;;;-145.69;100.00;72680.09;5072800;28;20282;-75
2022/05/07 01:43:28;;;;;;;27.03;12.13;;;;;;;-145.69;100.00;72672.13;5072326;28;20657;-75
2022/05/07 01:45:55;;;;;;;27.13;12.50;;;;;;;-145.69;100.00;72676.09;5072641;28;20194;-75
2022/05/07 01:48:21;;;;;;;34.10;14.13;;;;;;;-145.69;100.00;72664.16;5072442;28;20294;-75
2022/05/07 01:50:47;;;;;;;30.13;13.30;;;;;;;-145.69;100.00;72662.19;5072393;28;20321;-75
2022/05/07 01:53:15;;;;;;;28.07;13.37;;;;;;;-145.69;100.00;72674.13;5072007;28;20210;-75
2022/05/07 01:55:43;;;;;;;31.27;12.63;;;;;;;-145.69;100.00;72672.13;5072347;28;20289;-75
2022/05/07 01:58:10;;;;;;;37.53;14.37;;;;;;;-145.69;100.00;72664.16;5072248;28;20199;-75
2022/05/07 02:00:36;;;;;;;33.90;14.83;;;;;;;-145.69;100.00;72656.22;5072652;28;20202;-74
2022/05/07 02:03:03;;;;;;;41.03;14.60;;;;;;;-145.69;100.00;72652.22;5072145;28;20287;-75
2022/05/07 02:05:30;;;;;;;43.30;15.83;;;;;;;-145.69;100.00;72646.25;5071882;28;20203;-75
2022/05/07 02:07:57;;;;;;;33.27;15.00;;;;;;;-145.69;100.00;72648.25;5072362;28;20596;-75
2022/05/07 02:10:24;;;;;;;43.28;18.58;;;;;;;-145.69;100.00;72652.22;5073846;28;20437;-75
2022/05/07 02:12:52;;;;;;;37.23;15.93;;;;;;;-145.69;100.00;72636.31;5076066;28;20627;-75
2022/05/07 02:15:19;;;;;;;32.20;13.40;;;;;;;-145.69;100.00;72656.22;5076269;28;20207;-74
2022/05/07 02:17:45;;;;;;;21.97;11.37;;;;;;;-145.69;100.00;72680.09;5075981;28;20207;-75
2022/05/07 02:20:12;;;;;;;23.23;11.37;;;;;;;-145.69;100.00;72698.00;5075761;28;20207;-75
2022/05/07 02:22:38;;;;;;;22.43;9.77;;;;;;;-145.69;100.00;72707.97;5076111;28;20665;-75
2022/05/07 02:25:06;;;;;;;21.53;10.93;;;;;;;-145.69;100.00;72711.94;5076142;28;20276;-75
2022/05/07 02:27:33;;;;;;;23.00;10.63;;;;;;;-145.69;100.00;72709.94;5071829;28;20652;-75
2022/05/07 02:30:00;;;;;;;22.03;10.33;;;;;;;-145.69;100.00;72725.88;5058468;28;20203;-75
2022/05/07 02:32:27;;;;;;;23.90;10.90;;;;;;;-145.69;100.00;72719.91;5075716;28;20198;-75
2022/05/07 02:34:53;;;;;;;25.67;11.63;;;;;;;-145.69;100.00;72711.94;5076181;28;20199;-75
2022/05/07 02:37:20;;;;;;;63.97;14.30;;;;;;;-145.69;100.00;72703.97;5075825;28;20199;-74
2022/05/07 02:39:47;;;;;;;25.53;12.53;;;;;;;-145.69;100.00;72694.03;5075558;28;20203;-74
2022/05/07 02:44:58;;;;;;;38.30;14.20;;;;;;;-145.69;100.00;72682.09;5075806;28;20230;-75
2022/05/07 02:47:26;;;;;;;42.83;13.57;;;;;;;-145.69;100.00;72672.13;5075585;28;20199;-75
2022/05/07 02:49:52;;;;;;;31.83;13.50;;;;;;;-145.69;100.00;72678.09;5075333;28;20235;-75
2022/05/07 02:52:19;;;;;;;31.67;13.07;;;;;;;-145.69;100.00;72684.06;5075392;28;20252;-75
2022/05/07 02:54:45;;;;;;;37.67;13.63;;;;;;;-145.69;100.00;72698.00;5075571;28;20225;-75
2022/05/07 02:57:12;;;;;;;25.90;12.00;;;;;;;-145.69;100.00;72703.97;5074793;28;20658;-75
2022/05/07 02:59:39;;;;;;;31.87;12.17;;;;;;;-145.69;100.00;72707.97;5075430;28;20227;-75
2022/05/07 03:02:05;;;;;;;28.57;12.57;;;;;;;-145.69;100.00;72694.03;5075897;28;20290;-75
2022/05/07 03:04:33;;;;;;;27.87;11.37;;;;;;;-145.69;100.00;72701.97;5074940;28;20226;-74
2022/05/07 03:07:00;;;;;;;29.33;11.13;;;;;;;-145.69;100.00;72694.03;5074984;28;20245;-75
2022/05/07 03:09:26;;;;;;;25.60;10.63;;;;;;;-145.69;100.00;72692.03;5075551;28;20568;-75
2022/05/07 03:11:53;;;;;;;28.80;12.93;;;;;;;-145.69;100.00;72678.09;5075273;28;20198;-75
2022/05/07 03:14:19;;;;;;;30.70;12.77;;;;;;;-145.69;100.00;72662.19;5074603;28;20194;-75
2022/05/07 03:16:47;;;;;;;32.53;12.67;;;;;;;-145.69;100.00;72660.19;5075029;28;20726;-75
2022/05/07 03:19:13;;;;;;;29.67;12.60;;;;;;;-145.69;100.00;72654.22;5075282;28;20248;-75
2022/05/07 03:21:42;;;;;;;31.13;11.63;;;;;;;-145.69;100.00;72648.25;5075092;28;20282;-74
2022/05/07 03:24:09;;;;;;;31.20;12.10;;;;;;;-145.69;100.00;72654.22;5074853;28;20226;-75
2022/05/07 03:26:35;;;;;;;26.37;11.17;;;;;;;-145.69;100.00;72664.16;5075017;28;20240;-75
2022/05/07 03:29:02;;;;;;;25.63;11.47;;;;;;;-145.69;100.00;72636.31;5074953;28;20546;-75
2022/05/07 03:31:30;;;;;;;20.50;9.00;;;;;;;-145.69;100.00;72650.22;5074799;28;20349;-75
2022/05/07 03:33:56;;;;;;;21.83;9.03;;;;;;;-145.69;100.00;72672.13;5075068;28;20209;-75
2022/05/07 03:36:22;;;;;;;18.93;9.20;;;;;;;-145.69;100.00;72698.00;5074369;28;20657;-75
2022/05/07 03:38:50;;;;;;;21.43;8.27;;;;;;;-145.69;100.00;72701.97;5074679;28;20202;-75
2022/05/07 03:41:19;;;;;;;18.70;9.90;;;;;;;-145.69;100.00;72703.97;5074554;28;20570;-75
2022/05/07 03:43:45;;;;;;;22.83;9.93;;;;;;;-145.69;100.00;72696.00;5074379;28;20994;-75
2022/05/07 03:46:12;;;;;;;20.77;9.43;;;;;;;-145.69;100.00;72707.97;5074961;28;20199;-75
2022/05/07 03:48:39;;;;;;;18.97;8.83;;;;;;;-145.69;100.00;72723.88;5074318;28;20225;-75
2022/05/07 03:51:06;;;;;;;18.60;7.97;;;;;;;-145.69;100.00;72743.78;5074055;28;20206;-75
2022/05/07 03:53:32;;;;;;;15.13;7.57;;;;;;;-145.69;100.00;72751.75;5074508;28;20203;-75
2022/05/07 03:56:00;;;;;;;23.07;9.33;;;;;;;-145.69;100.00;72737.81;5074423;28;20672;-75
2022/05/07 03:58:27;;;;;;;22.93;9.50;;;;;;;-145.69;100.00;72725.88;5073802;28;20653;-75
2022/05/07 04:00:54;;;;;;;26.10;10.20;;;;;;;-145.69;100.00;72717.91;5073911;28;20707;-75
2022/05/07 04:03:22;;;;;;;22.03;8.83;;;;;;;-145.69;100.00;72723.88;5074327;28;20283;-75
2022/05/07 04:05:49;;;;;;;19.00;8.73;;;;;;;-145.69;100.00;72731.84;5074182;28;20722;-75
2022/05/07 04:08:16;;;;;;;17.57;8.40;;;;;;;-145.69;100.00;72735.81;5073969;28;20194;-75
2022/05/07 04:10:43;;;;;;;24.90;9.50;;;;;;;-145.69;100.00;72735.81;5074474;28;20205;-75
2022/05/07 04:13:11;;;;;;;30.53;11.70;;;;;;;-145.69;100.00;72703.97;5074093;28;20198;-74
2022/05/07 04:15:38;;;;;;;26.60;10.83;;;;;;;-145.69;100.00;72715.91;5074192;28;20207;-75
2022/05/07 04:18:05;;;;;;;21.87;9.00;;;;;;;-145.69;100.00;72731.84;5073099;28;20656;-74
2022/05/07 04:20:31;;;;;;;22.47;7.83;;;;;;;-145.69;100.00;72747.78;5073761;28;20202;-75
2022/05/07 04:22:58;;;;;;;21.67;8.70;;;;;;;-145.69;100.00;72743.78;5073658;28;20209;-75
2022/05/07 04:25:25;;;;;;;21.57;9.30;;;;;;;-145.69;100.00;72747.78;5073864;28;20230;-75
2022/05/07 04:27:51;;;;;;;26.33;10.93;;;;;;;-145.69;100.00;72711.94;5065010;28;20203;-75
2022/05/07 04:30:19;;;;;;;23.73;10.17;;;;;;;-145.69;100.00;72715.91;5053910;28;20639;-75
2022/05/07 04:32:45;;;;;;;37.40;11.00;;;;;;;-145.69;100.00;72709.94;5071364;28;20203;-75
2022/05/07 04:35:12;;;;;;;30.63;12.17;;;;;;;-145.69;100.00;72700.00;5073024;28;20592;-75
2022/05/07 04:37:38;;;;;;;22.10;9.80;;;;;;;-145.69;100.00;72719.91;5073298;28;20214;-75
2022/05/07 04:40:06;;;;;;;19.40;9.50;;;;;;;-145.69;100.00;72727.88;5073366;28;20199;-75
2022/05/07 04:42:33;;;;;;;27.93;9.53;;;;;;;-145.69;100.00;72727.88;5073547;28;20252;-75
2022/05/07 04:44:59;;;;;;;18.77;8.93;;;;;;;-145.69;100.00;72741.78;5073131;28;20252;-75
2022/05/07 04:47:27;;;;;;;17.93;8.77;;;;;;;-145.69;100.00;72735.81;5073423;28;20195;-74
2022/05/07 04:49:53;;;;;;;22.33;9.50;;;;;;;-145.69;100.00;72727.88;5073266;28;20754;-74
2022/05/07 04:52:20;;;;;;;21.80;10.50;;;;;;;-145.69;100.00;72705.97;5073100;28;20202;-75
2022/05/07 04:54:46;;;;;;;23.53;10.80;;;;;;;-145.69;100.00;72698.00;5073098;28;20297;-75
2022/05/07 04:57:12;;;;;;;25.97;10.70;;;;;;;-145.69;100.00;72715.91;5072347;28;20967;-75
2022/05/07 04:59:39;;;;;;;14.53;8.00;;;;;;;-145.69;100.00;72715.91;5073487;28;20206;-75
2022/05/07 05:02:05;;;;;;;22.03;9.33;;;;;;;-145.69;100.00;72707.97;5072840;28;20649;-75
2022/05/07 05:04:33;;;;;;;15.50;7.57;;;;;;;-145.69;100.00;72719.91;5072916;28;20643;-75
2022/05/07 05:06:59;;;;;;;19.23;7.77;;;;;;;-145.69;100.00;72719.91;5073078;28;20202;-75
2022/05/07 05:09:26;;;;;;;17.00;7.37;;;;;;;-145.69;100.00;72723.88;5053345;28;20601;-75
2022/05/07 05:11:54;;;;;;;17.80;8.50;;;;;;;-145.69;100.00;72701.97;5052961;28;20658;-75
2022/05/07 05:17:04;;;;;;;17.27;7.97;;;;;;;-145.69;100.00;72707.97;5049700;28;20227;-75
2022/05/07 05:19:30;;;;;;;18.20;7.60;;;;;;;-145.69;100.00;72696.00;5055030;28;20208;-75
2022/05/07 05:21:58;;;;;;;18.13;8.10;;;;;;;-145.69;100.00;72692.03;5073163;28;20535;-75
2022/05/07 05:24:25;;;;;;;16.00;7.80;;;;;;;-145.69;100.00;72692.03;5073023;28;20222;-75
2022/05/07 05:26:51;;;;;;;16.53;8.43;;;;;;;-145.69;100.00;72668.16;5072955;28;20347;-75
2022/05/07 05:29:17;;;;;;;15.10;8.37;;;;;;;-145.69;100.00;72648.25;5072749;28;20248;-75
2022/05/07 05:31:44;;;;;;;19.77;8.60;;;;;;;-145.69;100.00;72628.34;5072346;28;20191;-75
2022/05/07 05:34:10;;;;;;;24.43;9.53;;;;;;;-145.69;100.00;72612.41;5072841;28;20202;-75
2022/05/07 05:36:37;;;;;;;23.67;10.20;;;;;;;-145.69;100.00;72598.47;5072883;28;20687;-75
2022/05/07 05:39:06;;;;;;;18.03;8.23;;;;;;;-145.69;100.00;72578.56;5072259;28;20252;-75
2022/05/07 05:41:33;;;;;;;20.10;9.07;;;;;;;-145.69;100.00;72560.66;5072770;28;20198;-75
2022/05/07 05:44:00;;;;;;;20.77;9.17;;;;;;;-145.69;100.00;72536.78;5072503;28;20191;-75
2022/05/07 05:46:27;;;;;;;19.47;9.40;;;;;;;-145.69;100.00;72524.84;5076716;28;20228;-75
2022/05/07 05:48:54;;;;;;;19.93;8.57;;;;;;;-145.69;100.00;72508.91;5076880;28;20234;-75
2022/05/07 05:51:20;;;;;;;17.53;10.27;;;;;;;-145.69;100.00;72485.03;5076052;28;20430;-75
2022/05/07 05:53:47;;;;;;;18.87;8.87;;;;;;;-145.69;100.00;72445.22;5076966;28;20202;-75
2022/05/07 05:56:14;;;;;;;12.43;7.67;;;;;;;-145.69;100.00;72443.22;5076191;28;20198;-75
2022/05/07 05:58:41;;;;;;;15.63;7.97;;;;;;;-145.69;100.00;72425.31;5076714;28;20546;-76
2022/05/07 06:01:07;;;;;;;12.97;7.80;;;;;;;-145.69;100.00;72407.41;5076552;28;20203;-75
2022/05/07 06:03:34;;;;;;;17.17;9.37;;;;;;;-145.69;100.00;72383.53;5076872;28;20198;-75
2022/05/07 06:06:01;;;;;;;19.00;9.40;;;;;;;-145.69;100.00;72367.59;5076458;28;20328;-75
2022/05/07 06:08:27;;;;;;;17.30;10.73;;;;;;;-145.69;100.00;72347.69;5076324;28;20198;-75
2022/05/07 06:10:54;;;;;;;22.10;11.30;;;;;;;-145.69;100.00;72325.81;5076597;28;20653;-76
2022/05/07 06:13:22;;;;;;;23.77;10.67;;;;;;;-145.69;100.00;72293.94;5076184;28;20212;-75
2022/05/07 06:15:51;;;;;;;22.27;11.40;;;;;;;-145.69;100.00;72256.13;5076070;28;20206;-76
2022/05/07 06:18:18;;;;;;;23.07;9.87;;;;;;;-145.69;100.00;72210.38;5076523;28;20207;-75
2022/05/07 06:20:44;;;;;;;18.93;9.33;;;;;;;-145.69;100.00;72162.59;5071790;28;20671;-76
2022/05/07 06:23:10;;;;;;;16.95;9.65;;;;;;;-145.69;100.00;72112.84;5055820;28;20653;-76
2022/05/07 06:28:23;;;;;;;12.02;7.78;;;;;;;-145.69;100.00;72037.22;5055921;28;20254;-75
2022/05/07 06:30:49;;;;;;;18.90;9.27;;;;;;;-145.69;100.00;72025.28;5056194;28;20239;-76
2022/05/07 06:33:16;;;;;;;12.93;8.02;;;;;;;-145.69;100.00;72027.25;5072672;28;20195;-76
2022/05/07 06:35:42;;;;;;;17.80;9.23;;;;;;;-145.69;100.00;72031.25;5075847;28;20209;-76
2022/05/07 06:38:09;;;;;;;17.65;7.22;;;;;;;-145.69;100.00;72047.16;5076082;28;20207;-76
2022/05/07 06:40:37;;;;;;;12.45;7.60;;;;;;;-145.69;100.00;72037.22;5075631;28;20252;-76
2022/05/07 06:43:03;;;;;;;14.98;8.73;;;;;;;-145.69;100.00;72057.13;5075633;28;20286;-76
2022/05/07 06:45:31;;;;;;;17.85;9.93;;;;;;;-145.69;100.00;72049.16;5075538;28;20287;-76
2022/05/07 06:47:58;;;;;;;16.95;9.45;;;;;;;-145.69;100.00;72051.16;5075875;28;20248;-76
2022/05/07 06:50:24;;;;;;;18.65;9.55;;;;;;;-145.69;100.00;72051.16;5075302;28;20235;-77
2022/05/07 06:52:50;;;;;;;14.52;8.57;;;;;;;-145.69;100.00;72065.06;5075415;28;20565;-76
2022/05/07 06:55:18;;;;;;;15.53;9.17;;;;;;;-145.69;100.00;72090.94;5075114;28;20198;-76
2022/05/07 06:57:46;;;;;;;18.07;9.77;;;;;;;-145.69;100.00;72094.94;5075477;28;20198;-76
2022/05/07 07:00:15;;;;;;;18.10;10.07;;;;;;;-145.69;100.00;72110.84;5075456;28;20195;-76
2022/05/07 07:02:43;;;;;;;18.50;9.37;;;;;;;-145.69;100.00;72124.78;5075332;28;20332;-76
2022/05/07 07:05:10;;;;;;;13.93;8.70;;;;;;;-145.69;100.00;72122.78;5075468;28;20227;-75
2022/05/07 07:07:37;;;;;;;16.07;8.87;;;;;;;-145.69;100.00;72106.88;5074794;28;20542;-75
2022/05/07 07:10:03;;;;;;;14.87;9.30;;;;;;;-145.69;100.00;72098.91;5075311;28;20242;-76
2022/05/07 07:12:30;;;;;;;15.93;9.30;;;;;;;-145.69;100.00;72104.88;5075420;28;20229;-76
2022/05/07 07:14:56;;;;;;;22.30;10.07;;;;;;;-145.69;100.00;72110.84;5075426;28;20206;-75
2022/05/07 07:17:25;;;;;;;17.53;9.53;;;;;;;-145.69;100.00;72094.94;5075240;28;20209;-75
2022/05/07 07:19:53;;;;;;;18.23;9.57;;;;;;;-145.69;100.00;72096.91;5074599;28;20193;-75
2022/05/07 07:22:19;;;;;;;14.43;8.53;;;;;;;-145.69;100.00;72102.88;5074912;28;20199;-75
2022/05/07 07:24:46;;;;;;;15.20;9.33;;;;;;;-145.69;100.00;72102.88;5075079;28;20233;-75
2022/05/07 07:27:12;;;;;;;15.00;8.60;;;;;;;-145.69;100.00;72092.94;5074946;28;20506;-75
2022/05/07 07:29:39;;;;;;;14.63;8.40;;;;;;;-145.69;100.00;72071.03;5075037;28;20256;-75
2022/05/07 07:32:06;;;;;;;20.80;9.13;;;;;;;-145.69;100.00;72071.03;5074542;28;20202;-75
2022/05/07 07:34:32;;;;;;;14.87;8.00;;;;;;;-145.69;100.00;72065.06;5074886;28;20597;-76
2022/05/07 07:37:00;;;;;;;14.73;9.20;;;;;;;-145.69;100.00;72051.16;5075038;28;20203;-76
2022/05/07 07:39:27;;;;;;;15.07;9.73;;;;;;;-145.69;100.00;72037.22;5075052;28;20195;-76
2022/05/07 07:41:53;;;;;;;14.40;8.40;;;;;;;-145.69;100.00;72023.28;5074523;28;20609;-76
2022/05/07 07:44:20;;;;;;;17.87;8.90;;;;;;;-145.69;100.00;72039.19;5074554;28;20222;-76
2022/05/07 07:49:30;;;;;;;12.20;8.50;;;;;;;-145.69;100.00;72027.25;5074506;28;20226;-76
2022/05/07 07:51:56;;;;;;;15.57;8.60;;;;;;;-145.69;100.00;72027.25;5074869;28;20195;-76
2022/05/07 07:54:24;;;;;;;15.17;9.10;;;;;;;-145.69;100.00;72011.34;5074320;28;20294;-76
2022/05/07 07:56:51;;;;;;;15.67;9.10;;;;;;;-145.69;100.00;72015.31;5074102;28;20206;-76
2022/05/07 07:59:17;;;;;;;11.65;7.95;;;;;;;-145.69;100.00;71997.41;5074485;28;20214;-76
2022/05/07 08:01:44;;;;;;;17.23;8.50;;;;;;;-145.69;100.00;71951.63;5074341;28;20246;-76
2022/05/07 08:04:10;;;;;;;12.20;8.30;;;;;;;-145.69;100.00;71953.63;5074448;28;20207;-76
2022/05/07 08:06:37;;;;;;;15.30;9.07;;;;;;;-145.69;100.00;71939.69;5073339;28;20814;-76
2022/05/07 08:11:55;;;;;;;11.48;7.47;;;;;;;-145.69;100.00;71909.84;5073620;28;20295;-76
2022/05/07 08:14:21;;;;;;;12.97;7.83;;;;;;;-145.69;100.00;71897.91;5073714;28;20535;-75
2022/05/07 08:16:48;;;;;;;14.10;8.77;;;;;;;-145.69;100.00;71868.06;5074028;28;20726;-77
2022/05/07 08:19:16;;;;;;;12.05;7.85;;;;;;;-145.69;100.00;71870.03;5074037;28;20575;-76
2022/05/07 08:21:42;;;;;;;15.75;7.68;;;;;;;-145.69;100.00;71840.19;5074065;28;20199;-76
2022/05/07 08:24:08;;;;;;;13.73;7.80;;;;;;;-145.69;100.00;71846.16;5065790;28;20196;-76
2022/05/07 08:26:35;;;;;;;11.05;7.82;;;;;;;-145.69;100.00;71830.25;5053817;28;20238;-76
2022/05/07 08:29:03;;;;;;;13.15;8.25;;;;;;;-145.69;100.00;71816.31;5052826;28;21023;-76
2022/05/07 08:31:29;;;;;;;13.18;7.68;;;;;;;-145.69;100.00;71780.50;5053999;28;20207;-76
2022/05/07 08:33:56;;;;;;;12.68;7.55;;;;;;;-145.69;100.00;71732.72;5053798;28;20203;-76
2022/05/07 08:36:25;;;;;;;15.00;7.72;;;;;;;-145.69;95.20;71704.88;5064831;28;20253;-76
2022/05/07 08:38:51;;;;;;;12.63;7.90;;;;;;;-145.69;94.63;71677.00;5072622;28;20519;-75
2022/05/07 08:41:19;;;;;;;13.73;7.22;;;;;;;-145.69;90.13;71645.16;5073494;28;20206;-75
2022/05/07 08:43:45;;;;;;;14.63;7.00;;;;;;;-145.69;89.34;71649.16;5073588;28;20226;-75
2022/05/07 08:46:16;;;;;;;17.40;7.70;;;;;;;-145.69;88.66;71645.16;5073234;28;20226;-76
2022/05/07 08:48:46;;;;;;;11.82;7.32;;;;;;;-145.69;83.77;71633.22;5072450;28;20336;-76
2022/05/07 08:51:14;;;;;;;11.93;7.38;;;;;;;-145.69;83.33;71609.34;5073654;28;20631;-76
2022/05/07 08:53:40;;;;;;;12.30;7.47;;;;;;;-145.69;88.52;71595.41;5073274;28;20213;-76
2022/05/07 08:56:08;;;;;;;15.95;8.02;;;;;;;-145.69;83.00;71613.31;5073126;28;20227;-77
2022/05/07 08:58:36;;;;;;;10.50;6.15;;;;;;;-145.69;84.11;71587.47;5072805;28;20707;-75
2022/05/07 09:01:06;;;;;;;12.77;6.78;;;;;;;-145.69;79.36;71597.41;5073088;28;20195;-76
2022/05/07 09:03:43;;;;;;;10.40;6.82;;;;;;;-145.69;80.58;71585.47;5073206;28;20205;-76
2022/05/07 09:06:24;;;;;;;11.65;7.95;;;;;;;-145.69;80.64;71609.34;5072900;28;20226;-77
2022/05/07 09:08:52;;;;;;;17.08;7.15;;;;;;;-145.69;81.22;71589.44;5073059;28;20199;-75
2022/05/07 09:11:19;;;;;;;14.60;7.38;;;;;;;-145.69;77.15;71571.53;5072911;28;20198;-75
2022/05/07 09:13:47;;;;;;;16.05;7.30;;;;;;;-145.69;79.21;71569.53;5072986;28;20607;-74
2022/05/07 09:16:13;;;;;;;10.45;6.22;;;;;;;-145.69;79.57;71545.66;5072253;28;20600;-75
2022/05/07 09:18:47;;;;;;;14.02;6.80;;;;;;;-145.69;74.64;71525.78;5072954;28;20222;-77
2022/05/07 09:21:26;;;;;;;15.82;6.60;;;;;;;-145.69;77.57;71537.72;5072883;28;20214;-76
2022/05/07 09:24:02;;;;;;;17.88;7.38;;;;;;;-145.69;76.33;71549.66;5072690;28;20602;-76
2022/05/07 09:26:30;;;;;;;8.40;6.05;;;;;;;-145.69;76.71;71503.88;5072778;28;20233;-76
2022/05/07 09:28:58;;;;;;;11.85;6.40;;;;;;;-145.69;75.12;71470.06;5072711;28;20202;-77
2022/05/07 09:31:26;;;;;;;11.85;6.10;;;;;;;-145.69;71.79;71470.06;5072490;28;20206;-76
2022/05/07 09:33:54;;;;;;;14.73;6.53;;;;;;;-145.69;72.14;71485.97;5073040;28;20211;-76
2022/05/07 09:36:22;;;;;;;8.95;5.35;;;;;;;-145.69;74.68;71476.03;5072503;28;20209;-76
2022/05/07 09:38:58;;;;;;;10.32;5.05;;;;;;;-145.69;70.34;71470.06;5072659;28;20626;-75
2022/05/07 09:41:24;;;;;;;13.10;5.90;;;;;;;-145.69;67.30;71507.84;5072868;28;20198;-77
2022/05/07 09:43:51;;;;;;;11.27;4.90;;;;;;;-145.69;71.33;71503.88;5072507;28;20203;-76
2022/05/07 09:46:18;;;;;;;12.57;5.40;;;;;;;-145.69;68.94;71505.88;5072744;28;20659;-77
2022/05/07 09:48:45;;;;;;;8.85;5.40;;;;;;;-145.69;70.76;71543.69;5072388;28;20222;-77
2022/05/07 09:51:14;;;;;;;10.40;4.68;;;;;;;-145.69;68.24;71561.59;5072188;28;20202;-77
2022/05/07 09:59:13;;;;;;;9.95;4.60;;;;;;;-145.69;69.87;71503.88;5072754;28;20660;-75
2022/05/07 10:01:56;;;;;;;9.90;4.82;;;;;;;-145.69;69.13;71491.94;5077799;28;20296;-76
2022/05/07 10:04:39;;;;;;;10.75;4.38;;;;;;;-145.69;66.19;71485.97;5052515;28;20222;-76
2022/05/07 10:07:22;;;;;;;11.93;4.72;;;;;;;-145.69;65.91;71470.06;5063004;28;20692;-76
2022/05/07 10:10:02;;;;;;;11.98;4.40;;;;;;;-145.69;69.86;71466.06;5072497;28;20213;-76
2022/05/07 10:12:29;;;;;;;9.77;3.88;;;;;;;-145.69;67.30;71418.31;5072303;28;20194;-75
2022/05/07 10:15:05;;;;;;;10.32;4.55;;;;;;;-145.69;67.96;71376.53;5072339;28;20198;-76
2022/05/07 10:17:31;;;;;;;10.05;5.07;;;;;;;-145.69;62.28;71396.44;5072551;28;20234;-77
2022/05/07 10:20:05;;;;;;;8.25;4.13;;;;;;;-145.69;63.91;71398.41;5067223;28;20215;-75
2022/05/07 10:22:33;;;;;;;9.40;4.38;;;;;;;-145.69;66.06;71452.16;5052242;28;20665;-77
2022/05/07 10:25:06;;;;;;;9.82;5.03;;;;;;;-145.69;67.67;71458.09;5052515;28;20265;-75
2022/05/07 10:27:33;;;;;;;11.00;4.65;;;;;;;-145.69;61.64;71460.09;5051568;28;20235;-75
2022/05/07 10:30:08;;;;;;;9.85;4.70;;;;;;;-145.69;67.72;71398.41;5053237;28;20203;-75
2022/05/07 10:32:48;;;;;;;5.57;4.13;;;;;;;-145.69;64.62;71362.59;5076187;28;20537;-75
2022/05/07 10:35:36;;;;;;;8.75;4.50;;;;;;;-145.69;60.95;71310.84;5074399;28;20538;-75
2022/05/07 10:38:07;;;;;;;12.93;5.18;;;;;;;-145.69;65.03;71342.69;5075496;28;20252;-75
2022/05/07 10:40:33;;;;;;;10.13;4.57;;;;;;;-145.69;67.15;71326.78;5076116;28;20207;-77
2022/05/07 10:43:01;;;;;;;6.63;4.40;;;;;;;-145.69;58.86;71273.06;5075747;28;20222;-76
2022/05/07 10:45:28;;;;;;;8.27;4.70;;;;;;;-145.69;60.64;71285.00;5075560;28;20207;-76
2022/05/07 10:47:58;;;;;;;8.60;4.50;;;;;;;-145.69;64.17;71316.84;5075969;28;20206;-76
2022/05/07 10:50:24;;;;;;;7.35;4.40;;;;;;;-145.69;59.20;71326.78;5075522;28;20230;-75
2022/05/07 10:52:56;;;;;;;11.38;4.75;;;;;;;-145.69;62.79;71310.84;5075003;28;20924;-75
2022/05/07 10:55:27;;;;;;;6.47;4.13;;;;;;;-145.69;57.46;71267.09;5075350;28;20206;-76
2022/05/07 10:57:57;;;;;;;10.50;5.55;;;;;;;-145.69;55.68;71275.03;5075627;28;20203;-78
2022/05/07 11:00:25;;;;;;;12.15;4.95;;;;;;;-145.69;58.33;71273.06;5075539;28;20203;-75
2022/05/07 11:02:59;;;;;;;11.63;4.85;;;;;;;-145.69;62.11;71283.00;5075379;28;20253;-76
2022/05/07 11:05:32;;;;;;;7.60;4.20;;;;;;;-145.69;58.57;71269.06;5075392;28;20638;-76
2022/05/07 11:08:03;;;;;;;7.32;4.10;;;;;;;-145.69;59.38;71217.34;5074987;28;20199;-76
2022/05/07 11:10:32;;;;;;;8.23;4.70;;;;;;;-145.69;58.92;71195.47;5075311;28;20203;-75
2022/05/07 11:13:05;;;;;;;11.07;4.50;;;;;;;-145.69;58.86;71223.31;5075397;28;20195;-76
2022/05/07 11:15:32;;;;;;;7.50;4.25;;;;;;;-145.69;58.23;71251.16;5075057;28;20206;-76
2022/05/07 11:18:02;;;;;;;9.20;4.05;;;;;;;-145.69;60.59;71269.06;5075278;28;20205;-77
2022/05/07 11:20:30;;;;;;;16.52;4.80;;;;;;;-145.69;59.13;71273.06;5075333;28;20280;-75
2022/05/07 11:23:03;;;;;;;11.05;4.95;;;;;;;-145.69;59.40;71257.13;5075253;28;20301;-75
2022/05/07 11:25:33;;;;;;;8.88;4.03;;;;;;;-145.69;57.60;71191.47;5075167;28;20199;-76
2022/05/07 11:28:00;;;;;;;7.88;3.80;;;;;;;-145.69;56.41;71159.63;5075052;28;20289;-76